sensor_id;sensor_type;location;lat;lon;timestamp;P1;durP1;ratioP1;P2;durP2;ratioP2
23402;SDS011;11874;48.228;11.684;2023-07-13T06:53:15;6.85;;;2.10;;
23402;SDS011;11874;48.228;11.684;2023-07-13T06:55:43;4.30;;;1.95;;
23402;SDS011;11874;48.228;11.684;2023-07-13T06:58:11;4.22;;;2.00;;
23402;SDS011;11874;48.228;11.684;2023-07-13T07:00:39;5.70;;;1.83;;
23402;SDS011;11874;48.228;11.684;2023-07-13T07:03:07;4.18;;;2.10;;
23402;SDS011;11874;48.228;11.684;2023-07-13T07:05:36;4.88;;;2.20;;
23402;SDS011;11874;48.228;11.684;2023-07-13T07:08:04;2.55;;;1.80;;
23402;SDS011;11874;48.228;11.684;2023-07-13T07:10:33;3.70;;;2.10;;
23402;SDS011;11874;48.228;11.684;2023-07-13T07:13:02;3.10;;;2.25;;
23402;SDS011;11874;48.228;11.684;2023-07-13T07:15:30;3.72;;;2.40;;
23402;SDS011;11874;48.228;11.684;2023-07-13T07:17:58;4.13;;;2.10;;
23402;SDS011;11874;48.228;11.684;2023-07-13T07:20:26;3.17;;;2.03;;
23402;SDS011;11874;48.228;11.684;2023-07-13T07:22:54;4.20;;;2.20;;
23402;SDS011;11874;48.228;11.684;2023-07-13T07:25:22;3.08;;;1.98;;
23402;SDS011;11874;48.228;11.684;2023-07-13T07:27:51;5.05;;;2.22;;
23402;SDS011;11874;48.228;11.684;2023-07-13T07:32:53;3.33;;;1.80;;
23402;SDS011;11874;48.228;11.684;2023-07-13T07:35:23;2.50;;;1.80;;
23402;SDS011;11874;48.228;11.684;2023-07-13T07:37:50;3.25;;;1.55;;
23402;SDS011;11874;48.228;11.684;2023-07-13T07:40:18;2.92;;;1.83;;
23402;SDS011;11874;48.228;11.684;2023-07-13T07:42:49;4.22;;;1.95;;
23402;SDS011;11874;48.228;11.684;2023-07-13T07:45:19;3.58;;;1.92;;
23402;SDS011;11874;48.228;11.684;2023-07-13T07:47:47;2.15;;;1.90;;
23402;SDS011;11874;48.228;11.684;2023-07-13T07:50:15;3.92;;;1.70;;
23402;SDS011;11874;48.228;11.684;2023-07-13T07:52:45;3.08;;;1.70;;
23402;SDS011;11874;48.228;11.684;2023-07-13T07:55:13;2.55;;;2.00;;
23402;SDS011;11874;48.228;11.684;2023-07-13T07:57:44;3.05;;;1.80;;
23402;SDS011;11874;48.228;11.684;2023-07-13T08:00:17;2.72;;;2.00;;
23402;SDS011;11874;48.228;11.684;2023-07-13T08:02:48;4.32;;;1.90;;
23402;SDS011;11874;48.228;11.684;2023-07-13T08:05:19;3.78;;;1.60;;
23402;SDS011;11874;48.228;11.684;2023-07-13T08:08:04;4.07;;;1.80;;
23402;SDS011;11874;48.228;11.684;2023-07-13T08:10:34;3.35;;;2.05;;
23402;SDS011;11874;48.228;11.684;2023-07-13T08:13:03;2.80;;;1.70;;
23402;SDS011;11874;48.228;11.684;2023-07-13T08:15:35;2.97;;;1.67;;
23402;SDS011;11874;48.228;11.684;2023-07-13T08:18:04;3.50;;;1.90;;
23402;SDS011;11874;48.228;11.684;2023-07-13T08:20:36;3.75;;;1.45;;
23402;SDS011;11874;48.228;11.684;2023-07-13T08:23:04;3.40;;;1.88;;
23402;SDS011;11874;48.228;11.684;2023-07-13T08:25:32;4.47;;;1.90;;
23402;SDS011;11874;48.228;11.684;2023-07-13T08:28:01;3.08;;;1.95;;
23402;SDS011;11874;48.228;11.684;2023-07-13T08:30:29;5.07;;;1.73;;
23402;SDS011;11874;48.228;11.684;2023-07-13T08:32:59;7.50;;;2.00;;
23402;SDS011;11874;48.228;11.684;2023-07-13T08:35:27;2.72;;;1.80;;
23402;SDS011;11874;48.228;11.684;2023-07-13T08:37:55;4.53;;;1.60;;
23402;SDS011;11874;48.228;11.684;2023-07-13T08:40:24;2.97;;;1.60;;
23402;SDS011;11874;48.228;11.684;2023-07-13T08:42:54;5.47;;;1.83;;
23402;SDS011;11874;48.228;11.684;2023-07-13T08:45:27;3.00;;;1.58;;
23402;SDS011;11874;48.228;11.684;2023-07-13T08:48:01;4.15;;;1.70;;
23402;SDS011;11874;48.228;11.684;2023-07-13T08:50:32;2.13;;;1.40;;
23402;SDS011;11874;48.228;11.684;2023-07-13T08:53:19;2.60;;;1.67;;
23402;SDS011;11874;48.228;11.684;2023-07-13T08:55:48;2.25;;;1.65;;
23402;SDS011;11874;48.228;11.684;2023-07-13T08:58:23;2.38;;;1.40;;
23402;SDS011;11874;48.228;11.684;2023-07-13T09:00:56;3.20;;;1.30;;
23402;SDS011;11874;48.228;11.684;2023-07-13T09:03:35;6.10;;;1.85;;
23402;SDS011;11874;48.228;11.684;2023-07-13T09:06:12;3.33;;;1.50;;
23402;SDS011;11874;48.228;11.684;2023-07-13T09:08:50;2.40;;;1.45;;
23402;SDS011;11874;48.228;11.684;2023-07-13T09:11:32;1.60;;;1.50;;
23402;SDS011;11874;48.228;11.684;2023-07-13T09:14:13;3.47;;;1.58;;
23402;SDS011;11874;48.228;11.684;2023-07-13T09:16:58;2.05;;;1.40;;
23402;SDS011;11874;48.228;11.684;2023-07-13T09:19:28;2.00;;;1.27;;
23402;SDS011;11874;48.228;11.684;2023-07-13T09:22:00;2.30;;;1.40;;
23402;SDS011;11874;48.228;11.684;2023-07-13T09:24:35;3.08;;;1.63;;
23402;SDS011;11874;48.228;11.684;2023-07-13T09:27:13;1.98;;;1.30;;
23402;SDS011;11874;48.228;11.684;2023-07-13T09:29:46;1.65;;;1.50;;
23402;SDS011;11874;48.228;11.684;2023-07-13T09:32:18;4.28;;;1.30;;
23402;SDS011;11874;48.228;11.684;2023-07-13T09:34:52;2.10;;;1.10;;
23402;SDS011;11874;48.228;11.684;2023-07-13T09:37:21;1.75;;;1.38;;
23402;SDS011;11874;48.228;11.684;2023-07-13T09:39:55;3.33;;;1.20;;
23402;SDS011;11874;48.228;11.684;2023-07-13T09:42:26;4.40;;;1.73;;
23402;SDS011;11874;48.228;11.684;2023-07-13T09:44:55;4.40;;;1.20;;
23402;SDS011;11874;48.228;11.684;2023-07-13T09:47:26;2.50;;;1.40;;
23402;SDS011;11874;48.228;11.684;2023-07-13T09:49:59;1.92;;;1.38;;
23402;SDS011;11874;48.228;11.684;2023-07-13T09:52:38;3.63;;;1.63;;
23402;SDS011;11874;48.228;11.684;2023-07-13T09:55:26;2.40;;;1.50;;
23402;SDS011;11874;48.228;11.684;2023-07-13T09:57:56;3.95;;;1.23;;
23402;SDS011;11874;48.228;11.684;2023-07-13T10:00:25;2.47;;;1.50;;
23402;SDS011;11874;48.228;11.684;2023-07-13T10:02:58;2.20;;;1.42;;
23402;SDS011;11874;48.228;11.684;2023-07-13T10:05:29;3.65;;;1.45;;
23402;SDS011;11874;48.228;11.684;2023-07-13T10:08:04;5.75;;;1.50;;
23402;SDS011;11874;48.228;11.684;2023-07-13T10:10:33;4.72;;;1.70;;
23402;SDS011;11874;48.228;11.684;2023-07-13T10:13:02;3.08;;;1.30;;
23402;SDS011;11874;48.228;11.684;2023-07-13T10:15:31;1.27;;;1.10;;
23402;SDS011;11874;48.228;11.684;2023-07-13T10:18:00;1.73;;;1.15;;
23402;SDS011;11874;48.228;11.684;2023-07-13T10:20:30;3.03;;;1.40;;
23402;SDS011;11874;48.228;11.684;2023-07-13T10:22:58;1.80;;;1.40;;
23402;SDS011;11874;48.228;11.684;2023-07-13T10:25:30;7.15;;;1.38;;
23402;SDS011;11874;48.228;11.684;2023-07-13T10:28:01;1.92;;;1.30;;
23402;SDS011;11874;48.228;11.684;2023-07-13T10:30:33;2.53;;;1.55;;
23402;SDS011;11874;48.228;11.684;2023-07-13T10:33:09;2.42;;;1.63;;
23402;SDS011;11874;48.228;11.684;2023-07-13T10:35:41;2.28;;;1.67;;
23402;SDS011;11874;48.228;11.684;2023-07-13T10:38:12;3.03;;;1.35;;
23402;SDS011;11874;48.228;11.684;2023-07-13T10:40:43;3.78;;;1.45;;
23402;SDS011;11874;48.228;11.684;2023-07-13T10:43:23;1.85;;;1.42;;
23402;SDS011;11874;48.228;11.684;2023-07-13T10:45:57;5.43;;;1.48;;
23402;SDS011;11874;48.228;11.684;2023-07-13T10:48:26;2.22;;;1.30;;
23402;SDS011;11874;48.228;11.684;2023-07-13T10:50:57;3.90;;;1.50;;
23402;SDS011;11874;48.228;11.684;2023-07-13T10:53:28;3.45;;;1.48;;
23402;SDS011;11874;48.228;11.684;2023-07-13T10:55:58;3.78;;;1.33;;
23402;SDS011;11874;48.228;11.684;2023-07-13T10:58:29;1.47;;;1.10;;
23402;SDS011;11874;48.228;11.684;2023-07-13T11:01:03;1.75;;;1.23;;
23402;SDS011;11874;48.228;11.684;2023-07-13T11:03:35;3.38;;;1.15;;
23402;SDS011;11874;48.228;11.684;2023-07-13T11:06:08;2.42;;;1.40;;
23402;SDS011;11874;48.228;11.684;2023-07-13T11:08:51;2.53;;;1.63;;
23402;SDS011;11874;48.228;11.684;2023-07-13T11:11:33;5.00;;;1.40;;
23402;SDS011;11874;48.228;11.684;2023-07-13T11:14:05;2.40;;;1.05;;
23402;SDS011;11874;48.228;11.684;2023-07-13T11:16:55;4.30;;;1.60;;
23402;SDS011;11874;48.228;11.684;2023-07-13T11:19:26;2.53;;;1.48;;
23402;SDS011;11874;48.228;11.684;2023-07-13T11:22:20;1.85;;;1.20;;
23402;SDS011;11874;48.228;11.684;2023-07-13T11:24:52;3.97;;;1.33;;
23402;SDS011;11874;48.228;11.684;2023-07-13T11:30:21;2.75;;;1.23;;
23402;SDS011;11874;48.228;11.684;2023-07-13T11:32:52;2.45;;;1.38;;
23402;SDS011;11874;48.228;11.684;2023-07-13T11:35:35;2.55;;;1.45;;
23402;SDS011;11874;48.228;11.684;2023-07-13T11:38:10;4.25;;;1.45;;
23402;SDS011;11874;48.228;11.684;2023-07-13T11:40:43;1.70;;;1.40;;
23402;SDS011;11874;48.228;11.684;2023-07-13T11:43:21;5.20;;;1.60;;
23402;SDS011;11874;48.228;11.684;2023-07-13T11:45:50;1.95;;;1.58;;
23402;SDS011;11874;48.228;11.684;2023-07-13T11:48:19;2.75;;;1.55;;
23402;SDS011;11874;48.228;11.684;2023-07-13T11:50:54;1.50;;;1.40;;
23402;SDS011;11874;48.228;11.684;2023-07-13T11:53:27;3.40;;;1.52;;
23402;SDS011;11874;48.228;11.684;2023-07-13T11:55:58;2.90;;;1.50;;
23402;SDS011;11874;48.228;11.684;2023-07-13T11:58:26;3.17;;;1.40;;
23402;SDS011;11874;48.228;11.684;2023-07-13T12:00:55;1.92;;;1.45;;
23402;SDS011;11874;48.228;11.684;2023-07-13T12:03:28;2.13;;;1.70;;
23402;SDS011;11874;48.228;11.684;2023-07-13T12:05:57;3.50;;;1.30;;
23402;SDS011;11874;48.228;11.684;2023-07-13T12:08:29;3.08;;;1.25;;
23402;SDS011;11874;48.228;11.684;2023-07-13T12:10:59;2.05;;;1.45;;
23402;SDS011;11874;48.228;11.684;2023-07-13T12:13:34;1.75;;;1.17;;
23402;SDS011;11874;48.228;11.684;2023-07-13T12:16:10;2.22;;;1.40;;
23402;SDS011;11874;48.228;11.684;2023-07-13T12:18:42;2.60;;;1.20;;
23402;SDS011;11874;48.228;11.684;2023-07-13T12:21:13;1.40;;;1.30;;
23402;SDS011;11874;48.228;11.684;2023-07-13T12:26:15;3.38;;;1.75;;
23402;SDS011;11874;48.228;11.684;2023-07-13T12:28:46;1.85;;;1.50;;
23402;SDS011;11874;48.228;11.684;2023-07-13T12:33:56;2.35;;;1.42;;
23402;SDS011;11874;48.228;11.684;2023-07-13T12:36:25;3.75;;;1.33;;
23402;SDS011;11874;48.228;11.684;2023-07-13T12:38:57;2.70;;;1.50;;
23402;SDS011;11874;48.228;11.684;2023-07-13T12:41:30;4.82;;;1.88;;
23402;SDS011;11874;48.228;11.684;2023-07-13T12:43:59;1.52;;;1.25;;
23402;SDS011;11874;48.228;11.684;2023-07-13T12:46:27;1.75;;;1.40;;
23402;SDS011;11874;48.228;11.684;2023-07-13T12:48:57;2.33;;;1.48;;
23402;SDS011;11874;48.228;11.684;2023-07-13T12:51:42;2.55;;;1.60;;
23402;SDS011;11874;48.228;11.684;2023-07-13T12:54:15;3.45;;;1.60;;
23402;SDS011;11874;48.228;11.684;2023-07-13T12:56:45;1.85;;;1.40;;
23402;SDS011;11874;48.228;11.684;2023-07-13T12:59:19;3.05;;;1.30;;
23402;SDS011;11874;48.228;11.684;2023-07-13T13:01:49;2.30;;;1.23;;
23402;SDS011;11874;48.228;11.684;2023-07-13T13:04:18;3.60;;;1.35;;
23402;SDS011;11874;48.228;11.684;2023-07-13T13:06:48;2.15;;;1.33;;
23402;SDS011;11874;48.228;11.684;2023-07-13T13:09:28;4.70;;;1.30;;
23402;SDS011;11874;48.228;11.684;2023-07-13T13:11:57;3.47;;;1.50;;
23402;SDS011;11874;48.228;11.684;2023-07-13T13:14:25;3.83;;;1.38;;
23402;SDS011;11874;48.228;11.684;2023-07-13T13:16:53;3.10;;;1.30;;
23402;SDS011;11874;48.228;11.684;2023-07-13T13:19:23;3.13;;;1.40;;
23402;SDS011;11874;48.228;11.684;2023-07-13T13:21:53;1.33;;;1.20;;
23402;SDS011;11874;48.228;11.684;2023-07-13T13:24:23;1.80;;;1.30;;
23402;SDS011;11874;48.228;11.684;2023-07-13T13:29:24;3.95;;;1.48;;
23402;SDS011;11874;48.228;11.684;2023-07-13T13:31:53;1.45;;;1.35;;
23402;SDS011;11874;48.228;11.684;2023-07-13T13:34:22;1.80;;;1.30;;
23402;SDS011;11874;48.228;11.684;2023-07-13T13:36:51;2.03;;;1.20;;
23402;SDS011;11874;48.228;11.684;2023-07-13T13:39:25;2.17;;;1.40;;
23402;SDS011;11874;48.228;11.684;2023-07-13T13:41:58;4.13;;;1.40;;
23402;SDS011;11874;48.228;11.684;2023-07-13T13:44:27;2.88;;;1.40;;
23402;SDS011;11874;48.228;11.684;2023-07-13T13:46:55;3.42;;;1.70;;
23402;SDS011;11874;48.228;11.684;2023-07-13T13:49:25;2.50;;;1.30;;
23402;SDS011;11874;48.228;11.684;2023-07-13T13:51:54;1.25;;;1.15;;
23402;SDS011;11874;48.228;11.684;2023-07-13T13:54:23;1.40;;;1.05;;
23402;SDS011;11874;48.228;11.684;2023-07-13T13:56:52;2.22;;;1.10;;
23402;SDS011;11874;48.228;11.684;2023-07-13T13:59:23;2.50;;;1.30;;
23402;SDS011;11874;48.228;11.684;2023-07-13T14:01:51;2.03;;;1.30;;
23402;SDS011;11874;48.228;11.684;2023-07-13T14:04:20;4.97;;;1.60;;
23402;SDS011;11874;48.228;11.684;2023-07-13T14:06:49;4.50;;;1.50;;
23402;SDS011;11874;48.228;11.684;2023-07-13T14:09:18;3.22;;;1.30;;
23402;SDS011;11874;48.228;11.684;2023-07-13T14:11:48;4.57;;;1.50;;
23402;SDS011;11874;48.228;11.684;2023-07-13T14:14:18;2.20;;;1.30;;
23402;SDS011;11874;48.228;11.684;2023-07-13T14:16:50;1.77;;;1.40;;
23402;SDS011;11874;48.228;11.684;2023-07-13T14:19:21;4.75;;;1.52;;
23402;SDS011;11874;48.228;11.684;2023-07-13T14:21:50;3.33;;;1.75;;
23402;SDS011;11874;48.228;11.684;2023-07-13T14:24:20;1.45;;;1.25;;
23402;SDS011;11874;48.228;11.684;2023-07-13T14:26:48;2.90;;;1.10;;
23402;SDS011;11874;48.228;11.684;2023-07-13T14:29:18;1.33;;;1.20;;
23402;SDS011;11874;48.228;11.684;2023-07-13T14:31:51;4.80;;;1.13;;
23402;SDS011;11874;48.228;11.684;2023-07-13T14:34:19;6.78;;;1.60;;
23402;SDS011;11874;48.228;11.684;2023-07-13T14:36:49;2.08;;;1.20;;
23402;SDS011;11874;48.228;11.684;2023-07-13T14:39:18;2.10;;;1.42;;
23402;SDS011;11874;48.228;11.684;2023-07-13T14:41:49;2.85;;;1.48;;
23402;SDS011;11874;48.228;11.684;2023-07-13T14:44:21;3.72;;;1.67;;
23402;SDS011;11874;48.228;11.684;2023-07-13T14:46:52;2.17;;;1.42;;
23402;SDS011;11874;48.228;11.684;2023-07-13T14:49:21;2.22;;;1.48;;
23402;SDS011;11874;48.228;11.684;2023-07-13T14:51:54;2.90;;;1.52;;
23402;SDS011;11874;48.228;11.684;2023-07-13T14:54:23;4.07;;;1.35;;
23402;SDS011;11874;48.228;11.684;2023-07-13T14:56:52;1.83;;;1.25;;
23402;SDS011;11874;48.228;11.684;2023-07-13T14:59:20;1.98;;;1.27;;
23402;SDS011;11874;48.228;11.684;2023-07-13T15:01:49;1.70;;;1.20;;
23402;SDS011;11874;48.228;11.684;2023-07-13T15:04:19;2.28;;;1.35;;
23402;SDS011;11874;48.228;11.684;2023-07-13T15:06:54;3.95;;;1.60;;
23402;SDS011;11874;48.228;11.684;2023-07-13T15:09:23;5.20;;;1.83;;
23402;SDS011;11874;48.228;11.684;2023-07-13T15:11:52;2.22;;;1.10;;
23402;SDS011;11874;48.228;11.684;2023-07-13T15:14:21;2.70;;;1.30;;
23402;SDS011;11874;48.228;11.684;2023-07-13T15:16:51;3.92;;;1.80;;
23402;SDS011;11874;48.228;11.684;2023-07-13T15:21:52;2.47;;;1.40;;
23402;SDS011;11874;48.228;11.684;2023-07-13T15:24:23;1.55;;;1.40;;
23402;SDS011;11874;48.228;11.684;2023-07-13T15:26:52;1.58;;;1.48;;
23402;SDS011;11874;48.228;11.684;2023-07-13T15:29:20;1.67;;;1.30;;
23402;SDS011;11874;48.228;11.684;2023-07-13T15:31:49;2.63;;;1.45;;
23402;SDS011;11874;48.228;11.684;2023-07-13T15:34:18;2.60;;;1.70;;
23402;SDS011;11874;48.228;11.684;2023-07-13T15:36:55;1.65;;;1.35;;
23402;SDS011;11874;48.228;11.684;2023-07-13T15:39:23;2.35;;;1.27;;
23402;SDS011;11874;48.228;11.684;2023-07-13T15:41:50;2.03;;;1.60;;
23402;SDS011;11874;48.228;11.684;2023-07-13T15:44:24;3.60;;;1.50;;
23402;SDS011;11874;48.228;11.684;2023-07-13T15:46:54;2.45;;;1.30;;
23402;SDS011;11874;48.228;11.684;2023-07-13T15:49:23;2.00;;;1.50;;
23402;SDS011;11874;48.228;11.684;2023-07-13T15:51:51;2.20;;;1.55;;
23402;SDS011;11874;48.228;11.684;2023-07-13T15:54:20;3.17;;;1.60;;
